sensor_id;sensor_type;location;lat;lon;timestamp;P1;durP1;ratioP1;P2;durP2;ratioP2
78027;SDS011;67235;45.638;11.714;2023-06-10T00:01:58;18.27;;;10.90;;
78027;SDS011;67235;45.638;11.714;2023-06-10T00:04:25;17.17;;;10.70;;
78027;SDS011;67235;45.638;11.714;2023-06-10T00:06:52;18.65;;;11.02;;
78027;SDS011;67235;45.638;11.714;2023-06-10T00:09:19;17.80;;;10.35;;
78027;SDS011;67235;45.638;11.714;2023-06-10T00:11:46;18.65;;;11.02;;
78027;SDS011;67235;45.638;11.714;2023-06-10T00:14:12;17.23;;;10.70;;
78027;SDS011;67235;45.638;11.714;2023-06-10T00:16:39;18.10;;;10.00;;
78027;SDS011;67235;45.638;11.714;2023-06-10T00:19:05;16.67;;;11.07;;
78027;SDS011;67235;45.638;11.714;2023-06-10T00:21:31;16.15;;;10.13;;
78027;SDS011;67235;45.638;11.714;2023-06-10T00:24:06;16.27;;;9.52;;
78027;SDS011;67235;45.638;11.714;2023-06-10T00:26:34;16.77;;;10.45;;
78027;SDS011;67235;45.638;11.714;2023-06-10T00:29:00;18.58;;;10.65;;
78027;SDS011;67235;45.638;11.714;2023-06-10T00:31:27;16.23;;;10.02;;
78027;SDS011;67235;45.638;11.714;2023-06-10T00:33:52;16.42;;;10.50;;
78027;SDS011;67235;45.638;11.714;2023-06-10T00:36:18;15.57;;;9.90;;
78027;SDS011;67235;45.638;11.714;2023-06-10T00:38:44;18.10;;;10.88;;
78027;SDS011;67235;45.638;11.714;2023-06-10T00:41:10;17.33;;;10.38;;
78027;SDS011;67235;45.638;11.714;2023-06-10T00:43:36;18.17;;;11.00;;
78027;SDS011;67235;45.638;11.714;2023-06-10T00:46:02;15.65;;;10.20;;
78027;SDS011;67235;45.638;11.714;2023-06-10T00:48:28;16.20;;;10.07;;
78027;SDS011;67235;45.638;11.714;2023-06-10T00:50:54;15.77;;;9.95;;
78027;SDS011;67235;45.638;11.714;2023-06-10T00:53:21;17.07;;;9.77;;
78027;SDS011;67235;45.638;11.714;2023-06-10T00:55:48;17.02;;;10.82;;
78027;SDS011;67235;45.638;11.714;2023-06-10T00:58:14;17.35;;;11.90;;
78027;SDS011;67235;45.638;11.714;2023-06-10T01:00:40;18.00;;;10.77;;
78027;SDS011;67235;45.638;11.714;2023-06-10T01:03:06;17.17;;;10.50;;
78027;SDS011;67235;45.638;11.714;2023-06-10T01:05:35;17.17;;;10.55;;
78027;SDS011;67235;45.638;11.714;2023-06-10T01:08:09;18.40;;;10.88;;
78027;SDS011;67235;45.638;11.714;2023-06-10T01:10:46;18.60;;;11.27;;
78027;SDS011;67235;45.638;11.714;2023-06-10T01:13:23;20.88;;;12.32;;
78027;SDS011;67235;45.638;11.714;2023-06-10T01:15:53;19.27;;;12.20;;
78027;SDS011;67235;45.638;11.714;2023-06-10T01:18:20;19.48;;;11.48;;
78027;SDS011;67235;45.638;11.714;2023-06-10T01:20:47;17.92;;;11.30;;
78027;SDS011;67235;45.638;11.714;2023-06-10T01:23:14;18.40;;;11.50;;
78027;SDS011;67235;45.638;11.714;2023-06-10T01:25:52;20.77;;;12.95;;
78027;SDS011;67235;45.638;11.714;2023-06-10T01:28:44;23.20;;;14.50;;
78027;SDS011;67235;45.638;11.714;2023-06-10T01:31:19;20.20;;;12.23;;
78027;SDS011;67235;45.638;11.714;2023-06-10T01:33:59;19.40;;;12.05;;
78027;SDS011;67235;45.638;11.714;2023-06-10T01:36:27;21.40;;;12.65;;
78027;SDS011;67235;45.638;11.714;2023-06-10T01:38:54;25.52;;;15.68;;
78027;SDS011;67235;45.638;11.714;2023-06-10T01:41:21;26.87;;;16.60;;
78027;SDS011;67235;45.638;11.714;2023-06-10T01:43:48;28.83;;;17.10;;
78027;SDS011;67235;45.638;11.714;2023-06-10T01:46:14;26.42;;;16.02;;
78027;SDS011;67235;45.638;11.714;2023-06-10T01:48:44;26.67;;;15.93;;
78027;SDS011;67235;45.638;11.714;2023-06-10T01:51:11;25.02;;;15.10;;
78027;SDS011;67235;45.638;11.714;2023-06-10T01:53:37;29.23;;;17.27;;
78027;SDS011;67235;45.638;11.714;2023-06-10T01:56:03;28.52;;;17.42;;
78027;SDS011;67235;45.638;11.714;2023-06-10T01:58:29;29.52;;;17.27;;
78027;SDS011;67235;45.638;11.714;2023-06-10T02:00:55;33.00;;;18.35;;
78027;SDS011;67235;45.638;11.714;2023-06-10T02:03:21;26.42;;;16.92;;
78027;SDS011;67235;45.638;11.714;2023-06-10T02:05:47;31.27;;;18.13;;
78027;SDS011;67235;45.638;11.714;2023-06-10T02:08:13;28.77;;;17.33;;
78027;SDS011;67235;45.638;11.714;2023-06-10T02:10:39;28.92;;;16.70;;
78027;SDS011;67235;45.638;11.714;2023-06-10T02:13:05;31.38;;;17.65;;
78027;SDS011;67235;45.638;11.714;2023-06-10T02:15:31;29.77;;;17.42;;
78027;SDS011;67235;45.638;11.714;2023-06-10T02:17:57;31.58;;;17.90;;
78027;SDS011;67235;45.638;11.714;2023-06-10T02:20:24;30.30;;;18.53;;
78027;SDS011;67235;45.638;11.714;2023-06-10T02:22:50;28.98;;;17.33;;
78027;SDS011;67235;45.638;11.714;2023-06-10T02:25:16;32.92;;;18.30;;
78027;SDS011;67235;45.638;11.714;2023-06-10T02:27:42;30.85;;;18.00;;
78027;SDS011;67235;45.638;11.714;2023-06-10T02:30:08;32.27;;;17.67;;
78027;SDS011;67235;45.638;11.714;2023-06-10T02:32:35;29.95;;;17.40;;
78027;SDS011;67235;45.638;11.714;2023-06-10T02:35:01;31.33;;;17.88;;
78027;SDS011;67235;45.638;11.714;2023-06-10T02:37:27;29.38;;;17.05;;
78027;SDS011;67235;45.638;11.714;2023-06-10T02:39:53;27.73;;;15.90;;
78027;SDS011;67235;45.638;11.714;2023-06-10T02:42:19;27.83;;;15.35;;
78027;SDS011;67235;45.638;11.714;2023-06-10T02:44:45;26.48;;;14.88;;
78027;SDS011;67235;45.638;11.714;2023-06-10T02:47:11;25.33;;;14.00;;
78027;SDS011;67235;45.638;11.714;2023-06-10T02:49:37;25.48;;;14.65;;
78027;SDS011;67235;45.638;11.714;2023-06-10T02:52:03;24.65;;;14.40;;
78027;SDS011;67235;45.638;11.714;2023-06-10T02:54:29;25.60;;;14.48;;
78027;SDS011;67235;45.638;11.714;2023-06-10T02:56:55;23.52;;;13.57;;
78027;SDS011;67235;45.638;11.714;2023-06-10T02:59:21;23.38;;;14.25;;
78027;SDS011;67235;45.638;11.714;2023-06-10T03:01:47;25.80;;;14.52;;
78027;SDS011;67235;45.638;11.714;2023-06-10T03:04:13;21.90;;;13.20;;
78027;SDS011;67235;45.638;11.714;2023-06-10T03:06:39;24.35;;;14.77;;
78027;SDS011;67235;45.638;11.714;2023-06-10T03:09:10;25.05;;;14.18;;
78027;SDS011;67235;45.638;11.714;2023-06-10T03:11:36;25.70;;;14.60;;
78027;SDS011;67235;45.638;11.714;2023-06-10T03:14:02;25.13;;;14.77;;
78027;SDS011;67235;45.638;11.714;2023-06-10T03:16:28;25.75;;;14.82;;
78027;SDS011;67235;45.638;11.714;2023-06-10T03:18:57;25.02;;;14.85;;
78027;SDS011;67235;45.638;11.714;2023-06-10T03:21:23;24.07;;;13.57;;
78027;SDS011;67235;45.638;11.714;2023-06-10T03:23:49;22.35;;;13.60;;
78027;SDS011;67235;45.638;11.714;2023-06-10T03:26:15;25.23;;;14.50;;
78027;SDS011;67235;45.638;11.714;2023-06-10T03:28:41;25.48;;;14.32;;
78027;SDS011;67235;45.638;11.714;2023-06-10T03:31:07;23.30;;;13.80;;
78027;SDS011;67235;45.638;11.714;2023-06-10T03:33:33;25.23;;;13.95;;
78027;SDS011;67235;45.638;11.714;2023-06-10T03:35:59;24.30;;;14.23;;
78027;SDS011;67235;45.638;11.714;2023-06-10T03:38:25;24.07;;;14.17;;
78027;SDS011;67235;45.638;11.714;2023-06-10T03:40:51;25.63;;;14.57;;
78027;SDS011;67235;45.638;11.714;2023-06-10T03:43:16;24.77;;;14.37;;
78027;SDS011;67235;45.638;11.714;2023-06-10T03:45:42;26.40;;;15.38;;
78027;SDS011;67235;45.638;11.714;2023-06-10T03:48:08;26.23;;;14.85;;
78027;SDS011;67235;45.638;11.714;2023-06-10T03:50:34;23.53;;;14.47;;
78027;SDS011;67235;45.638;11.714;2023-06-10T03:53:01;25.30;;;14.75;;
78027;SDS011;67235;45.638;11.714;2023-06-10T03:55:27;25.13;;;15.07;;
78027;SDS011;67235;45.638;11.714;2023-06-10T03:57:53;26.10;;;14.47;;
78027;SDS011;67235;45.638;11.714;2023-06-10T04:00:19;24.27;;;14.40;;
78027;SDS011;67235;45.638;11.714;2023-06-10T04:02:46;21.60;;;13.20;;
78027;SDS011;67235;45.638;11.714;2023-06-10T04:05:18;27.80;;;14.80;;
78027;SDS011;67235;45.638;11.714;2023-06-10T04:07:47;26.95;;;15.32;;
78027;SDS011;67235;45.638;11.714;2023-06-10T04:10:13;24.57;;;13.83;;
78027;SDS011;67235;45.638;11.714;2023-06-10T04:12:40;26.35;;;15.07;;
78027;SDS011;67235;45.638;11.714;2023-06-10T04:15:07;25.58;;;15.05;;
78027;SDS011;67235;45.638;11.714;2023-06-10T04:17:33;25.85;;;16.08;;
78027;SDS011;67235;45.638;11.714;2023-06-10T04:19:59;29.90;;;16.67;;
78027;SDS011;67235;45.638;11.714;2023-06-10T04:22:26;28.77;;;16.70;;
78027;SDS011;67235;45.638;11.714;2023-06-10T04:24:52;25.00;;;15.57;;
78027;SDS011;67235;45.638;11.714;2023-06-10T04:27:18;27.35;;;16.27;;
78027;SDS011;67235;45.638;11.714;2023-06-10T04:29:45;26.52;;;15.80;;
78027;SDS011;67235;45.638;11.714;2023-06-10T04:32:11;27.97;;;16.43;;
78027;SDS011;67235;45.638;11.714;2023-06-10T04:34:37;25.42;;;15.73;;
78027;SDS011;67235;45.638;11.714;2023-06-10T04:37:05;24.98;;;15.50;;
78027;SDS011;67235;45.638;11.714;2023-06-10T04:39:31;27.73;;;16.35;;
78027;SDS011;67235;45.638;11.714;2023-06-10T04:41:59;26.75;;;15.63;;
78027;SDS011;67235;45.638;11.714;2023-06-10T04:44:25;26.30;;;15.90;;
78027;SDS011;67235;45.638;11.714;2023-06-10T04:46:51;27.02;;;16.30;;
78027;SDS011;67235;45.638;11.714;2023-06-10T04:49:17;26.57;;;15.73;;
78027;SDS011;67235;45.638;11.714;2023-06-10T04:51:43;27.73;;;15.77;;
78027;SDS011;67235;45.638;11.714;2023-06-10T04:54:09;28.20;;;16.55;;
78027;SDS011;67235;45.638;11.714;2023-06-10T04:56:34;26.05;;;15.90;;
78027;SDS011;67235;45.638;11.714;2023-06-10T04:59:01;25.77;;;15.80;;
78027;SDS011;67235;45.638;11.714;2023-06-10T05:01:27;28.08;;;17.23;;
78027;SDS011;67235;45.638;11.714;2023-06-10T05:03:53;26.20;;;15.90;;
78027;SDS011;67235;45.638;11.714;2023-06-10T05:06:18;26.90;;;16.33;;
78027;SDS011;67235;45.638;11.714;2023-06-10T05:08:44;28.87;;;15.57;;
78027;SDS011;67235;45.638;11.714;2023-06-10T05:11:10;25.48;;;15.60;;
78027;SDS011;67235;45.638;11.714;2023-06-10T05:13:36;24.45;;;15.90;;
78027;SDS011;67235;45.638;11.714;2023-06-10T05:16:02;24.80;;;14.73;;
78027;SDS011;67235;45.638;11.714;2023-06-10T05:18:28;26.73;;;16.27;;
78027;SDS011;67235;45.638;11.714;2023-06-10T05:20:54;25.50;;;15.20;;
78027;SDS011;67235;45.638;11.714;2023-06-10T05:23:20;25.80;;;15.82;;
78027;SDS011;67235;45.638;11.714;2023-06-10T05:25:46;28.70;;;16.33;;
78027;SDS011;67235;45.638;11.714;2023-06-10T05:28:13;24.67;;;14.77;;
78027;SDS011;67235;45.638;11.714;2023-06-10T05:30:38;22.80;;;14.00;;
78027;SDS011;67235;45.638;11.714;2023-06-10T05:33:04;20.70;;;13.68;;
78027;SDS011;67235;45.638;11.714;2023-06-10T05:35:30;20.97;;;13.70;;
78027;SDS011;67235;45.638;11.714;2023-06-10T05:37:56;20.55;;;13.43;;
78027;SDS011;67235;45.638;11.714;2023-06-10T05:40:22;19.83;;;12.95;;
78027;SDS011;67235;45.638;11.714;2023-06-10T05:42:48;21.53;;;14.27;;
78027;SDS011;67235;45.638;11.714;2023-06-10T05:45:14;19.65;;;12.95;;
78027;SDS011;67235;45.638;11.714;2023-06-10T05:47:41;21.80;;;13.38;;
78027;SDS011;67235;45.638;11.714;2023-06-10T05:50:07;18.83;;;12.40;;
78027;SDS011;67235;45.638;11.714;2023-06-10T05:52:34;18.23;;;12.05;;
78027;SDS011;67235;45.638;11.714;2023-06-10T05:55:01;17.00;;;11.20;;
78027;SDS011;67235;45.638;11.714;2023-06-10T05:57:31;16.63;;;11.38;;
78027;SDS011;67235;45.638;11.714;2023-06-10T05:59:57;14.82;;;10.32;;
78027;SDS011;67235;45.638;11.714;2023-06-10T06:02:23;18.17;;;10.85;;
78027;SDS011;67235;45.638;11.714;2023-06-10T06:04:49;15.45;;;9.48;;
78027;SDS011;67235;45.638;11.714;2023-06-10T06:07:15;15.67;;;10.97;;
78027;SDS011;67235;45.638;11.714;2023-06-10T06:10:03;16.85;;;11.48;;
78027;SDS011;67235;45.638;11.714;2023-06-10T06:12:29;18.85;;;11.73;;
78027;SDS011;67235;45.638;11.714;2023-06-10T06:14:55;16.67;;;11.03;;
78027;SDS011;67235;45.638;11.714;2023-06-10T06:17:20;16.42;;;11.73;;
78027;SDS011;67235;45.638;11.714;2023-06-10T06:19:46;15.85;;;10.52;;
78027;SDS011;67235;45.638;11.714;2023-06-10T06:22:12;12.73;;;8.73;;
78027;SDS011;67235;45.638;11.714;2023-06-10T06:24:38;13.27;;;8.00;;
78027;SDS011;67235;45.638;11.714;2023-06-10T06:27:04;11.18;;;7.15;;
78027;SDS011;67235;45.638;11.714;2023-06-10T06:29:30;10.87;;;7.13;;
78027;SDS011;67235;45.638;11.714;2023-06-10T06:31:56;9.95;;;6.50;;
78027;SDS011;67235;45.638;11.714;2023-06-10T06:34:22;9.30;;;6.63;;
78027;SDS011;67235;45.638;11.714;2023-06-10T06:36:48;10.07;;;5.70;;
78027;SDS011;67235;45.638;11.714;2023-06-10T06:39:14;7.75;;;4.97;;
78027;SDS011;67235;45.638;11.714;2023-06-10T06:41:39;9.38;;;6.15;;
78027;SDS011;67235;45.638;11.714;2023-06-10T06:44:05;8.53;;;5.80;;
78027;SDS011;67235;45.638;11.714;2023-06-10T06:46:31;9.43;;;5.90;;
78027;SDS011;67235;45.638;11.714;2023-06-10T06:48:57;9.70;;;6.43;;
78027;SDS011;67235;45.638;11.714;2023-06-10T06:51:27;10.85;;;7.53;;
78027;SDS011;67235;45.638;11.714;2023-06-10T06:53:53;11.43;;;8.05;;
78027;SDS011;67235;45.638;11.714;2023-06-10T06:56:23;12.02;;;8.25;;
78027;SDS011;67235;45.638;11.714;2023-06-10T06:58:49;11.80;;;7.70;;
78027;SDS011;67235;45.638;11.714;2023-06-10T07:01:15;11.40;;;7.57;;
78027;SDS011;67235;45.638;11.714;2023-06-10T07:03:41;10.02;;;7.45;;
78027;SDS011;67235;45.638;11.714;2023-06-10T07:06:13;11.67;;;7.20;;
78027;SDS011;67235;45.638;11.714;2023-06-10T07:08:39;10.95;;;7.70;;
78027;SDS011;67235;45.638;11.714;2023-06-10T07:11:05;12.07;;;8.10;;
78027;SDS011;67235;45.638;11.714;2023-06-10T07:13:31;12.47;;;8.60;;
78027;SDS011;67235;45.638;11.714;2023-06-10T07:15:57;11.60;;;8.25;;
78027;SDS011;67235;45.638;11.714;2023-06-10T07:18:23;11.50;;;7.95;;
78027;SDS011;67235;45.638;11.714;2023-06-10T07:20:48;12.00;;;7.90;;
78027;SDS011;67235;45.638;11.714;2023-06-10T07:23:14;12.20;;;8.90;;
78027;SDS011;67235;45.638;11.714;2023-06-10T07:25:41;12.45;;;8.23;;
78027;SDS011;67235;45.638;11.714;2023-06-10T07:28:07;13.93;;;9.30;;
78027;SDS011;67235;45.638;11.714;2023-06-10T07:30:33;14.50;;;9.30;;
78027;SDS011;67235;45.638;11.714;2023-06-10T07:32:59;12.70;;;9.02;;
78027;SDS011;67235;45.638;11.714;2023-06-10T07:35:25;12.53;;;9.43;;
78027;SDS011;67235;45.638;11.714;2023-06-10T07:37:50;15.10;;;9.87;;
78027;SDS011;67235;45.638;11.714;2023-06-10T07:40:16;14.88;;;8.77;;
78027;SDS011;67235;45.638;11.714;2023-06-10T07:42:42;14.77;;;9.48;;
78027;SDS011;67235;45.638;11.714;2023-06-10T07:45:08;12.13;;;8.67;;
78027;SDS011;67235;45.638;11.714;2023-06-10T07:47:34;11.23;;;8.30;;
78027;SDS011;67235;45.638;11.714;2023-06-10T07:50:00;14.40;;;8.60;;
78027;SDS011;67235;45.638;11.714;2023-06-10T07:52:26;13.40;;;8.52;;
78027;SDS011;67235;45.638;11.714;2023-06-10T07:54:53;12.30;;;8.73;;
78027;SDS011;67235;45.638;11.714;2023-06-10T07:57:19;16.38;;;11.00;;
78027;SDS011;67235;45.638;11.714;2023-06-10T07:59:45;14.73;;;10.60;;
78027;SDS011;67235;45.638;11.714;2023-06-10T08:02:11;14.60;;;10.45;;
78027;SDS011;67235;45.638;11.714;2023-06-10T08:04:37;18.30;;;11.53;;
78027;SDS011;67235;45.638;11.714;2023-06-10T08:07:03;20.40;;;11.50;;
78027;SDS011;67235;45.638;11.714;2023-06-10T08:09:29;16.20;;;11.30;;
78027;SDS011;67235;45.638;11.714;2023-06-10T08:11:55;17.73;;;11.73;;
78027;SDS011;67235;45.638;11.714;2023-06-10T08:14:21;15.30;;;10.85;;
78027;SDS011;67235;45.638;11.714;2023-06-10T08:16:47;15.63;;;11.30;;
78027;SDS011;67235;45.638;11.714;2023-06-10T08:19:13;15.93;;;10.23;;
78027;SDS011;67235;45.638;11.714;2023-06-10T08:21:40;16.53;;;11.20;;
78027;SDS011;67235;45.638;11.714;2023-06-10T08:24:06;16.58;;;11.63;;
78027;SDS011;67235;45.638;11.714;2023-06-10T08:26:32;16.92;;;11.70;;
78027;SDS011;67235;45.638;11.714;2023-06-10T08:28:58;16.15;;;11.63;;
78027;SDS011;67235;45.638;11.714;2023-06-10T08:31:25;14.93;;;10.63;;
78027;SDS011;67235;45.638;11.714;2023-06-10T08:33:51;14.88;;;11.13;;
78027;SDS011;67235;45.638;11.714;2023-06-10T08:36:17;16.20;;;11.88;;
78027;SDS011;67235;45.638;11.714;2023-06-10T08:38:43;16.60;;;11.77;;
78027;SDS011;67235;45.638;11.714;2023-06-10T08:41:11;18.33;;;12.68;;
78027;SDS011;67235;45.638;11.714;2023-06-10T08:43:44;17.33;;;12.45;;
78027;SDS011;67235;45.638;11.714;2023-06-10T08:46:17;17.23;;;12.15;;
78027;SDS011;67235;45.638;11.714;2023-06-10T08:48:43;16.50;;;12.50;;
78027;SDS011;67235;45.638;11.714;2023-06-10T08:51:10;17.33;;;12.35;;
78027;SDS011;67235;45.638;11.714;2023-06-10T08:53:37;26.60;;;13.98;;
78027;SDS011;67235;45.638;11.714;2023-06-10T08:56:10;17.85;;;12.68;;
78027;SDS011;67235;45.638;11.714;2023-06-10T08:58:37;19.27;;;13.53;;
78027;SDS011;67235;45.638;11.714;2023-06-10T09:01:07;18.17;;;12.23;;
78027;SDS011;67235;45.638;11.714;2023-06-10T09:03:35;20.23;;;13.75;;
78027;SDS011;67235;45.638;11.714;2023-06-10T09:06:03;18.40;;;12.60;;
78027;SDS011;67235;45.638;11.714;2023-06-10T09:08:30;17.25;;;12.45;;
78027;SDS011;67235;45.638;11.714;2023-06-10T09:10:58;18.27;;;13.47;;
78027;SDS011;67235;45.638;11.714;2023-06-10T09:13:24;17.67;;;12.40;;
78027;SDS011;67235;45.638;11.714;2023-06-10T09:15:50;18.33;;;11.65;;
78027;SDS011;67235;45.638;11.714;2023-06-10T09:18:16;17.45;;;12.25;;
78027;SDS011;67235;45.638;11.714;2023-06-10T09:20:43;17.17;;;11.03;;
78027;SDS011;67235;45.638;11.714;2023-06-10T09:23:09;16.42;;;10.82;;
78027;SDS011;67235;45.638;11.714;2023-06-10T09:25:36;16.02;;;9.85;;
78027;SDS011;67235;45.638;11.714;2023-06-10T09:28:04;14.80;;;9.73;;
78027;SDS011;67235;45.638;11.714;2023-06-10T09:30:37;13.88;;;8.80;;
78027;SDS011;67235;45.638;11.714;2023-06-10T09:33:09;14.30;;;9.43;;
78027;SDS011;67235;45.638;11.714;2023-06-10T09:35:37;14.10;;;9.93;;
78027;SDS011;67235;45.638;11.714;2023-06-10T09:38:11;15.20;;;10.80;;
78027;SDS011;67235;45.638;11.714;2023-06-10T09:40:51;15.20;;;10.70;;
78027;SDS011;67235;45.638;11.714;2023-06-10T09:43:20;15.53;;;10.37;;
78027;SDS011;67235;45.638;11.714;2023-06-10T09:45:50;15.23;;;10.57;;
78027;SDS011;67235;45.638;11.714;2023-06-10T09:48:18;16.15;;;9.82;;
78027;SDS011;67235;45.638;11.714;2023-06-10T09:50:44;15.65;;;10.98;;
78027;SDS011;67235;45.638;11.714;2023-06-10T09:53:11;16.70;;;11.90;;
78027;SDS011;67235;45.638;11.714;2023-06-10T09:55:40;19.42;;;13.40;;
78027;SDS011;67235;45.638;11.714;2023-06-10T09:58:07;18.63;;;11.77;;
78027;SDS011;67235;45.638;11.714;2023-06-10T10:00:33;16.70;;;11.18;;
78027;SDS011;67235;45.638;11.714;2023-06-10T10:02:59;17.38;;;12.30;;
78027;SDS011;67235;45.638;11.714;2023-06-10T10:05:26;15.87;;;11.50;;
78027;SDS011;67235;45.638;11.714;2023-06-10T10:07:52;16.25;;;11.50;;
78027;SDS011;67235;45.638;11.714;2023-06-10T10:10:21;16.33;;;11.65;;
78027;SDS011;67235;45.638;11.714;2023-06-10T10:12:47;18.02;;;12.25;;
78027;SDS011;67235;45.638;11.714;2023-06-10T10:15:16;23.40;;;12.88;;
78027;SDS011;67235;45.638;11.714;2023-06-10T10:17:52;19.47;;;12.77;;
78027;SDS011;67235;45.638;11.714;2023-06-10T10:20:22;20.35;;;13.40;;
78027;SDS011;67235;45.638;11.714;2023-06-10T10:22:52;24.10;;;13.52;;
78027;SDS011;67235;45.638;11.714;2023-06-10T10:25:23;21.33;;;13.70;;
78027;SDS011;67235;45.638;11.714;2023-06-10T10:27:51;31.83;;;15.43;;
78027;SDS011;67235;45.638;11.714;2023-06-10T10:30:22;21.23;;;13.90;;
78027;SDS011;67235;45.638;11.714;2023-06-10T10:33:06;19.75;;;13.55;;
78027;SDS011;67235;45.638;11.714;2023-06-10T10:35:38;24.20;;;15.15;;
78027;SDS011;67235;45.638;11.714;2023-06-10T10:38:07;26.30;;;14.82;;
78027;SDS011;67235;45.638;11.714;2023-06-10T10:40:53;21.52;;;14.10;;
78027;SDS011;67235;45.638;11.714;2023-06-10T10:43:25;21.00;;;14.73;;
78027;SDS011;67235;45.638;11.714;2023-06-10T10:45:58;20.63;;;14.73;;
78027;SDS011;67235;45.638;11.714;2023-06-10T10:48:35;22.98;;;15.10;;
78027;SDS011;67235;45.638;11.714;2023-06-10T10:51:03;21.98;;;14.32;;
78027;SDS011;67235;45.638;11.714;2023-06-10T10:53:29;22.33;;;14.82;;
78027;SDS011;67235;45.638;11.714;2023-06-10T10:56:09;22.40;;;14.07;;
78027;SDS011;67235;45.638;11.714;2023-06-10T10:58:38;21.10;;;14.15;;
78027;SDS011;67235;45.638;11.714;2023-06-10T11:01:14;20.85;;;14.13;;
78027;SDS011;67235;45.638;11.714;2023-06-10T11:03:43;20.15;;;13.95;;
78027;SDS011;67235;45.638;11.714;2023-06-10T11:06:16;22.92;;;15.18;;
78027;SDS011;67235;45.638;11.714;2023-06-10T11:16:27;17.70;;;11.25;;
78027;SDS011;67235;45.638;11.714;2023-06-10T11:18:54;21.67;;;14.27;;
78027;SDS011;67235;45.638;11.714;2023-06-10T11:21:23;20.73;;;14.07;;
78027;SDS011;67235;45.638;11.714;2023-06-10T11:23:50;21.92;;;14.55;;
78027;SDS011;67235;45.638;11.714;2023-06-10T11:31:21;22.10;;;15.03;;
78027;SDS011;67235;45.638;11.714;2023-06-10T11:33:49;21.10;;;14.35;;
78027;SDS011;67235;45.638;11.714;2023-06-10T11:36:21;23.98;;;15.20;;
78027;SDS011;67235;45.638;11.714;2023-06-10T11:38:49;25.45;;;15.70;;
78027;SDS011;67235;45.638;11.714;2023-06-10T11:41:19;23.93;;;15.63;;
78027;SDS011;67235;45.638;11.714;2023-06-10T11:43:47;24.05;;;15.68;;
78027;SDS011;67235;45.638;11.714;2023-06-10T11:46:13;24.88;;;16.08;;
78027;SDS011;67235;45.638;11.714;2023-06-10T11:48:48;23.50;;;15.77;;
78027;SDS011;67235;45.638;11.714;2023-06-10T11:51:15;23.03;;;15.60;;
78027;SDS011;67235;45.638;11.714;2023-06-10T11:53:43;23.92;;;15.50;;
78027;SDS011;67235;45.638;11.714;2023-06-10T11:56:13;21.98;;;14.25;;
78027;SDS011;67235;45.638;11.714;2023-06-10T11:58:40;25.48;;;14.55;;
78027;SDS011;67235;45.638;11.714;2023-06-10T12:01:10;22.13;;;14.47;;
78027;SDS011;67235;45.638;11.714;2023-06-10T12:03:36;21.30;;;14.75;;
78027;SDS011;67235;45.638;11.714;2023-06-10T12:06:04;22.23;;;15.00;;
78027;SDS011;67235;45.638;11.714;2023-06-10T12:08:31;23.55;;;15.77;;
78027;SDS011;67235;45.638;11.714;2023-06-10T12:10:57;23.70;;;15.57;;
78027;SDS011;67235;45.638;11.714;2023-06-10T12:13:27;23.83;;;15.87;;
78027;SDS011;67235;45.638;11.714;2023-06-10T12:15:53;21.50;;;14.38;;
78027;SDS011;67235;45.638;11.714;2023-06-10T12:18:20;24.33;;;15.57;;
78027;SDS011;67235;45.638;11.714;2023-06-10T12:20:48;25.65;;;15.30;;
78027;SDS011;67235;45.638;11.714;2023-06-10T12:23:16;24.60;;;14.80;;
78027;SDS011;67235;45.638;11.714;2023-06-10T12:25:52;21.80;;;14.53;;
78027;SDS011;67235;45.638;11.714;2023-06-10T12:28:22;21.95;;;14.80;;
78027;SDS011;67235;45.638;11.714;2023-06-10T12:30:49;22.17;;;14.10;;
78027;SDS011;67235;45.638;11.714;2023-06-10T12:33:19;21.75;;;14.25;;
78027;SDS011;67235;45.638;11.714;2023-06-10T12:35:49;23.58;;;14.23;;
78027;SDS011;67235;45.638;11.714;2023-06-10T12:38:22;22.07;;;14.60;;
78027;SDS011;67235;45.638;11.714;2023-06-10T12:41:00;22.90;;;14.52;;
78027;SDS011;67235;45.638;11.714;2023-06-10T12:43:28;23.00;;;14.38;;
78027;SDS011;67235;45.638;11.714;2023-06-10T12:46:08;29.20;;;15.70;;
78027;SDS011;67235;45.638;11.714;2023-06-10T12:48:35;25.83;;;15.38;;
78027;SDS011;67235;45.638;11.714;2023-06-10T12:51:01;23.77;;;15.30;;
78027;SDS011;67235;45.638;11.714;2023-06-10T12:53:26;23.63;;;14.48;;
78027;SDS011;67235;45.638;11.714;2023-06-10T12:55:52;23.00;;;13.27;;
78027;SDS011;67235;45.638;11.714;2023-06-10T12:58:19;22.73;;;14.20;;
78027;SDS011;67235;45.638;11.714;2023-06-10T13:00:47;21.33;;;13.47;;
78027;SDS011;67235;45.638;11.714;2023-06-10T13:03:14;20.05;;;12.82;;
78027;SDS011;67235;45.638;11.714;2023-06-10T13:05:40;22.17;;;13.02;;
78027;SDS011;67235;45.638;11.714;2023-06-10T13:08:06;18.63;;;11.52;;
78027;SDS011;67235;45.638;11.714;2023-06-10T13:10:35;18.15;;;10.90;;
78027;SDS011;67235;45.638;11.714;2023-06-10T13:13:02;17.20;;;10.40;;
78027;SDS011;67235;45.638;11.714;2023-06-10T13:15:34;13.55;;;9.00;;
78027;SDS011;67235;45.638;11.714;2023-06-10T13:18:05;24.40;;;10.57;;
78027;SDS011;67235;45.638;11.714;2023-06-10T13:20:31;18.00;;;9.50;;
78027;SDS011;67235;45.638;11.714;2023-06-10T13:22:57;15.03;;;9.67;;
78027;SDS011;67235;45.638;11.714;2023-06-10T13:25:22;13.37;;;8.60;;
78027;SDS011;67235;45.638;11.714;2023-06-10T13:27:49;19.95;;;9.95;;
78027;SDS011;67235;45.638;11.714;2023-06-10T13:30:15;15.90;;;9.25;;
78027;SDS011;67235;45.638;11.714;2023-06-10T13:32:41;14.17;;;8.43;;
78027;SDS011;67235;45.638;11.714;2023-06-10T13:35:06;16.38;;;10.45;;
78027;SDS011;67235;45.638;11.714;2023-06-10T13:37:33;16.20;;;10.80;;
78027;SDS011;67235;45.638;11.714;2023-06-10T13:40:02;16.67;;;10.52;;
78027;SDS011;67235;45.638;11.714;2023-06-10T13:42:28;20.30;;;11.40;;
78027;SDS011;67235;45.638;11.714;2023-06-10T13:44:55;16.35;;;10.63;;
78027;SDS011;67235;45.638;11.714;2023-06-10T13:47:21;22.10;;;11.65;;
78027;SDS011;67235;45.638;11.714;2023-06-10T13:49:48;16.15;;;9.93;;
78027;SDS011;67235;45.638;11.714;2023-06-10T13:52:13;16.97;;;10.40;;
78027;SDS011;67235;45.638;11.714;2023-06-10T13:54:39;16.90;;;9.88;;
78027;SDS011;67235;45.638;11.714;2023-06-10T13:57:05;14.85;;;9.63;;
78027;SDS011;67235;45.638;11.714;2023-06-10T13:59:35;17.00;;;9.52;;
78027;SDS011;67235;45.638;11.714;2023-06-10T14:02:00;15.97;;;8.40;;
78027;SDS011;67235;45.638;11.714;2023-06-10T14:04:26;14.88;;;9.80;;
78027;SDS011;67235;45.638;11.714;2023-06-10T14:06:53;14.32;;;8.88;;
78027;SDS011;67235;45.638;11.714;2023-06-10T14:09:20;15.17;;;8.97;;
78027;SDS011;67235;45.638;11.714;2023-06-10T14:11:47;13.35;;;8.25;;
78027;SDS011;67235;45.638;11.714;2023-06-10T14:14:13;17.08;;;9.07;;
78027;SDS011;67235;45.638;11.714;2023-06-10T14:16:40;13.13;;;8.23;;
78027;SDS011;67235;45.638;11.714;2023-06-10T14:19:06;13.07;;;8.17;;
78027;SDS011;67235;45.638;11.714;2023-06-10T14:21:31;14.73;;;8.10;;
78027;SDS011;67235;45.638;11.714;2023-06-10T14:23:57;14.57;;;8.73;;
78027;SDS011;67235;45.638;11.714;2023-06-10T14:26:23;13.48;;;8.27;;